Aviation Digital Data Service (ADDS)

Output produced by METARs form (1428 UTC 05 October 2015)
found at http://aviationweather.gov/adds/metars/
KDAG 051350Z AUTO 25008KT -RA FEW035 BKN080 OVC090 14/12 A2985 RMK AO2 SLP093 P0007 T01390117 $
KDAG 051120Z 0512/0612 30010KT P6SM -SHRA BKN060 BKN080 
     FM051400 27008KT P6SM -RA SCT040 BKN060 OVC080 
     FM060200 28007KT P6SM SCT060 BKN080
KEDW 051358Z 22004KT 50SM SCT040 SCT120 SCT200 10/08 A2985 RMK AO2A SLP098 T00970078
TAF KEDW 0510/0616 VRB06KT 9999 FEW060 BKN120 QNH2977INS 
     BECMG 0516/0517 23009KT 9999 FEW020 BKN050 QNH2985INS 
     TEMPO 0521/0601 25012G20KT 
     BECMG 0604/0605 VRB06KT 9999 FEW040 BKN100 QNH3000INS TX24/0521Z TN12/0510Z
KVCV 051415Z AUTO 00000KT 10SM SCT090 11/08 A2988 RMK AO2
KONT 051353Z 00000KT 10SM VCFG FEW050 FEW110 15/13 A2984 RMK AO2 SLP098 TCU DSNT NE T01500133 $
KONT 051120Z 0512/0618 VRB05KT P6SM VCSH SCT030 BKN050 
     FM051500 VRB05KT P6SM -SHRA SCT020 BKN035 
     FM052200 26010KT P6SM VCSH SCT025 BKN050 
     FM060400 VRB05KT P6SM SCT020 BKN035 
     FM061600 VRB04KT P6SM SCT030
KSNA 051353Z 03003KT 10SM FEW045 BKN080 BKN120 17/14 A2982 RMK AO2 RAB34E51 SLP098 P0000 T01720139
KSNA 051120Z 0512/0612 13006KT P6SM -SHRA SCT030 BKN050 
     FM051900 19010KT P6SM VCSH SCT025 BKN050 
     FM060300 VRB04KT P6SM SCT025 SCT050 
     TEMPO 0606/0610 BKN025
KSAN 051351Z 10005KT 10SM FEW040 SCT070 BKN110 BKN200 18/13 A2983 RMK AO2 SLP102 SHRA DSNT W AND DSNT NW T01830133 $
KSAN 051120Z 0512/0618 12006KT P6SM -SHRA SCT030 BKN070 
     TEMPO 0512/0516 6SM RA BKN025 
     FM051800 22009KT P6SM VCSH SCT025 BKN050 
     FM060300 VRB04KT P6SM SCT025 SCT050 
     FM060800 VRB03KT P6SM BKN025 
     FM061600 VRB04KT P6SM SCT025
KNID 051356Z 00000KT 10SM FEW050 BKN065 OVC075 13/12 A2986 RMK AO2 SLP109 T01330122 PNO $
KNXP 051356Z AUTO 29007KT 10SM BKN070 OVC090 17/08 A2990 RMK AO2 SLP097 T01670078 $
TAF KNXP 0509/0609 30009KT 9999 SCT085 BKN120 QNH2981INS 
     TEMPO 0510/0516 VRB06KT 
     BECMG 0522/0600 27011KT 9999 FEW200 QNH2992INS AUTOMATED SENSOR METWATCH 0509 TIL 0515 T15/0512Z T25/0521Z
KPSP 051353Z 32011KT 10SM BKN090 21/10 A2980 RMK AO2 SLP089 T02060100
KPSP 051120Z 0512/0612 32007KT P6SM VCSH SCT050 BKN080 
     FM052300 32012KT P6SM SCT050 BKN080 
     FM060600 32005KT P6SM SCT050 SCT080
KLAX 051353Z 07004KT 10SM FEW025 SCT060 SCT160 17/14 A2983 RMK AO2 SLP099 T01720144
KLAX 051134Z 0512/0618 VRB05KT P6SM VCSH FEW025 BKN090 
     FM051600 19005KT P6SM FEW025 SCT050 
     FM051900 24009KT P6SM SCT050 
     FM060200 VRB05KT P6SM SCT070 
     FM061600 19006KT P6SM SKC
KCNO 051353Z 00000KT 10SM FEW040 SCT100 14/13 A2985 RMK AO2 SLP105 T01440133
KSMO 051351Z 02003KT 10SM CLR 17/14 A2983 RMK AO2 SLP101 T01670139 $
KLGB 051353Z 00000KT 10SM CLR 17/14 A2983 RMK AO2 SLP100 T01720144
KLGB 051134Z 0512/0612 VRB05KT P6SM VCSH SCT040 BKN090 
     FM051600 20005KT P6SM FEW025 SCT050 
     FM052200 22007KT P6SM SCT050 
     FM060300 VRB05KT P6SM SCT070
KVNY 051351Z 01005KT 10SM BKN030 14/11 A2984 RMK AO2 SLP100 T01440111
KVNY 051318Z 0513/0612 VRB05KT P6SM VCSH SCT030 BKN090 
     TEMPO 0513/0515 BKN030 
     FM051600 15008KT P6SM FEW020 SCT045 
     FM051900 20008KT P6SM SCT050 
     FM060200 VRB05KT P6SM SCT070
KBUR 051353Z 34004KT 10SM CLR 15/11 A2984 RMK AO2 SLP094 T01500111
KBUR 051134Z 0512/0612 VRB05KT P6SM VCSH SCT035 BKN090 
     FM051600 15008KT P6SM FEW020 SCT045 
     FM051900 20008KT P6SM SCT050 
     FM060200 VRB05KT P6SM SCT070
KBFL 051354Z 36003KT 10SM CLR 14/10 A2983 RMK AO2 SLP097 T01390100
KBFL 051133Z 0512/0612 VRB05KT P6SM SCT060 SCT100 BKN200 
     TEMPO 0512/0516 BKN060 
     FM051800 32008KT P6SM SCT100 BKN200 
     FM060300 VRB04KT P6SM BKN100
KPMD 051353Z AUTO 20003KT 10SM SCT042 OVC110 11/09 A2988 RMK AO2 SLP108 T01110094
KPMD 051134Z 0512/0612 VRB05KT P6SM VCSH SCT050 BKN090 
     FM052000 24012KT P6SM SCT025 BKN070 
     FM060400 VRB05KT P6SM SCT070
KOXR 051351Z AUTO 04007KT 10SM CLR 14/11 A2982 RMK AO2 SLP098 T01440111
KOXR 051139Z 0512/0612 VRB05KT P6SM SCT050 SCT100 
     FM051800 22010KT 6SM BR SCT100 
     FM052100 25012KT P6SM SCT100 
     FM060200 VRB05KT P6SM SCT100
KWJF 051356Z AUTO 22003KT 10SM BKN044 BKN055 10/06 A2988 RMK AO2 SLP115 T01000061 TSNO
KWJF 051134Z 0512/0612 VRB05KT P6SM VCSH SCT050 BKN090 
     FM052000 23012KT P6SM SCT035 BKN070 
     FM060400 VRB05KT P6SM SCT070
KCMA 051355Z 03003KT 10SM CLR 14/11 A2982 RMK AO2 SLP107 T01390111
KFAT 051353Z 11005KT 10SM FEW080 SCT150 SCT200 14/12 A2983 RMK AO2 SLP099 T01440117
KFAT 051133Z 0512/0612 VRB05KT P6SM SCT100 BKN200 
     TEMPO 0602/0606 BKN100
KEED 051356Z AUTO 24007KT 10SM OVC110 22/13 A2977 RMK AO2 SLP055 T02220133
KEED 051120Z 0512/0612 19010KT P6SM VCSH BKN060 OVC080 
     TEMPO 0512/0516 -SHRA BKN050 
     FM051600 20008KT P6SM -SHRA SCT040 BKN060 OVC080 
     FM060300 22007KT P6SM VCSH SCT060 BKN080
KLSV 051424Z AUTO 35004KT 10SM -RA OVC055 17/14 A2984 RMK AO2
TAF AMD KLSV 0514/0615 12009KT 9000 -SHRA SCT040 BKN070 QNH2983INS 
     TEMPO 0514/0516 -TSRA BKN070CB 
     BECMG 0515/0516 13012KT 9000 -SHRA SCT015 BKN070 QNH2987INS 
     TEMPO 0516/0520 -TSRA BKN070CB 
     BECMG 0519/0520 09012KT 9000 -SHRA BKN070 QNH2990INS 
     TEMPO 0520/0604 VRB20G30KT 8000 -TSRA BKN050CB 
     BECMG 0603/0604 15009KT 9999 NSW FEW060 BKN220 QNH2986INS 
     BECMG 0605/0606 04006KT 9000 -SHRA FEW040 SCT060 QNH2992INS 
     BECMG 0611/0612 04006KT 9999 NSW FEW060 SCT120 QNH3000INS TX24/0523Z TN17/0612Z AMD 051407
KLAS 051418Z 01003KT 10SM -RA FEW005 BKN050 BKN085 17/13 A2981 RMK AO2 TSE10 CB DSNT NW-NE P0000 T01720128
KLAS 051324Z 0513/0612 VRB05KT P6SM -SHRA SCT040 BKN080 
     TEMPO 0513/0515 17014G24KT 3SM -TSRA SCT030 BKN050CB 
     FM051500 15006KT P6SM -SHRA FEW030 SCT050 OVC060 
     FM051700 12007KT 6SM RA FEW010 SCT030 OVC040 
     TEMPO 0517/0521 5SM TSRA SCT010 BKN030 OVC040CB 
     FM052100 13007KT P6SM -RA FEW010 SCT030 OVC040 
     TEMPO 0521/0524 5SM -TSRA SCT010 BKN030 OVC040CB 
     FM060200 18006KT P6SM -SHRA SCT030 BKN060 
     FM060500 20006KT P6SM SCT040 BKN070
KHII 051415Z AUTO 15011KT 10SM SCT050 BKN070 OVC100 24/14 A2977 RMK AO2
KIFP 051415Z AUTO 05003KT 10SM FEW060 BKN110 20/16 A2979 RMK AO2 LTG DSNT N AND E
KIFP 051251Z 0513/0612 22006KT P6SM -SHRA SCT040 BKN060 
     TEMPO 0513/0515 4SM -TSRA BKN045CB 
     FM051500 14006KT 5SM -RA FEW040 SCT050 OVC060 
     FM052000 18008KT 6SM -SHRA FEW040 SCT060 BKN080 
     FM060200 19010KT P6SM VCSH SCT060 BKN080